createdAt,value
2023-04-21T00:00:01.025Z,6.21
2023-04-21T00:03:03.354Z,6.09
2023-04-21T00:06:09.586Z,5.95
2023-04-21T00:09:11.546Z,5.91
2023-04-21T00:12:13.308Z,5.75
2023-04-21T00:15:14.941Z,5.80
2023-04-21T00:18:17.920Z,5.86
2023-04-21T00:21:19.668Z,5.76
2023-04-21T00:24:21.447Z,5.59
2023-04-21T00:27:23.124Z,5.58
2023-04-21T00:30:24.878Z,5.51
2023-04-21T00:33:26.900Z,5.53
2023-04-21T00:36:30.627Z,5.46
2023-04-21T00:39:32.235Z,5.42
2023-04-21T00:42:33.866Z,5.35
2023-04-21T00:45:36.185Z,5.32
2023-04-21T00:48:37.769Z,5.20
2023-04-21T00:51:41.082Z,5.09
2023-04-21T00:54:43.277Z,5.03
2023-04-21T00:57:45.029Z,5.02
2023-04-21T01:00:46.742Z,4.91
2023-04-21T01:03:48.647Z,4.87
2023-04-21T01:06:51.157Z,5.02
2023-04-21T01:09:52.850Z,5.00
2023-04-21T01:12:54.624Z,5.00
2023-04-21T01:15:56.279Z,5.06
2023-04-21T01:18:59.165Z,5.02
2023-04-21T01:22:02.170Z,4.96
2023-04-21T01:25:05.943Z,4.68
2023-04-21T01:28:07.677Z,4.42
2023-04-21T01:31:09.396Z,4.48
2023-04-21T01:34:12.263Z,4.45
2023-04-21T01:37:17.422Z,4.40
2023-04-21T01:40:19.054Z,4.27
2023-04-21T01:43:22.807Z,4.34
2023-04-21T01:46:24.644Z,4.25
2023-04-21T01:49:26.988Z,4.10
2023-04-21T01:52:28.631Z,4.06
2023-04-21T01:55:30.683Z,3.93
2023-04-21T01:58:32.531Z,3.83
2023-04-21T02:01:36.122Z,3.79
2023-04-21T02:04:38.630Z,3.68
2023-04-21T02:07:41.174Z,3.73
2023-04-21T02:10:42.959Z,3.76
2023-04-21T02:13:47.162Z,3.73
2023-04-21T02:16:48.841Z,3.74
2023-04-21T02:19:50.521Z,3.69
2023-04-21T02:22:52.181Z,3.59
2023-04-21T02:25:54.006Z,3.56
2023-04-21T02:28:55.700Z,3.49
2023-04-21T02:32:05.273Z,3.51
2023-04-21T02:35:16.122Z,3.45
2023-04-21T02:38:17.849Z,3.47
2023-04-21T02:41:19.624Z,3.40
2023-04-21T02:44:21.269Z,3.33
2023-04-21T02:47:22.962Z,3.41
2023-04-21T02:50:25.257Z,3.57
2023-04-21T02:53:26.939Z,3.55
2023-04-21T02:56:28.711Z,3.45
2023-04-21T02:59:30.699Z,3.36
2023-04-21T03:02:35.073Z,3.48
2023-04-21T03:05:37.058Z,3.54
2023-04-21T03:08:39.033Z,3.44
2023-04-21T03:11:41.067Z,3.41
2023-04-21T03:14:42.676Z,3.30
2023-04-21T03:17:44.434Z,3.26
2023-04-21T03:20:46.271Z,3.22
2023-04-21T03:23:47.956Z,3.15
2023-04-21T03:26:50.029Z,3.08
2023-04-21T03:29:51.625Z,3.00
2023-04-21T03:32:53.892Z,2.96
2023-04-21T03:35:55.720Z,2.91
2023-04-21T03:39:05.917Z,2.95
2023-04-21T03:42:14.682Z,2.96
2023-04-21T03:45:16.471Z,2.80
2023-04-21T03:48:18.147Z,3.04
2023-04-21T03:51:19.787Z,2.99
2023-04-21T03:54:21.472Z,3.10
2023-04-21T03:57:23.281Z,3.16
2023-04-21T04:00:24.931Z,3.31
2023-04-21T04:03:26.769Z,3.32
2023-04-21T04:06:28.657Z,3.09
2023-04-21T04:09:30.682Z,3.06
2023-04-21T04:12:32.309Z,3.07
2023-04-21T04:15:33.979Z,3.12
2023-04-21T04:18:35.729Z,3.15
2023-04-21T04:21:38.129Z,3.04
2023-04-21T04:24:39.874Z,3.07
2023-04-21T04:27:41.497Z,2.94
2023-04-21T04:30:43.890Z,2.79
2023-04-21T04:33:45.544Z,2.98
2023-04-21T04:36:48.104Z,2.83
2023-04-21T04:39:53.238Z,2.67
2023-04-21T04:42:54.959Z,2.82
2023-04-21T04:45:56.519Z,2.77
2023-04-21T04:48:58.096Z,2.73
2023-04-21T04:51:59.946Z,2.73
2023-04-21T04:55:01.772Z,2.71
2023-04-21T04:58:03.565Z,2.71
2023-04-21T05:01:17.958Z,2.62
2023-04-21T05:04:20.443Z,2.55
2023-04-21T05:07:22.480Z,2.55
2023-04-21T05:10:24.093Z,2.64
2023-04-21T05:13:25.806Z,2.63
2023-04-21T05:16:27.430Z,2.55
2023-04-21T05:19:29.412Z,2.57
2023-04-21T05:22:31.231Z,2.54
2023-04-21T05:25:32.901Z,2.55
2023-04-21T05:28:35.829Z,2.58
2023-04-21T05:31:39.163Z,2.60
2023-04-21T05:34:40.962Z,2.67
2023-04-21T05:37:42.524Z,2.60
2023-04-21T05:40:45.381Z,2.57
2023-04-21T05:43:47.643Z,2.51
2023-04-21T05:46:49.213Z,2.59
2023-04-21T05:49:54.129Z,2.46
2023-04-21T05:52:56.182Z,2.50
2023-04-21T05:55:58.839Z,2.56
2023-04-21T05:59:00.663Z,2.65
2023-04-21T06:02:03.975Z,2.70
2023-04-21T06:05:06.433Z,2.77
2023-04-21T06:08:08.363Z,2.88
2023-04-21T06:11:10.116Z,2.99
2023-04-21T06:14:11.832Z,3.05
2023-04-21T06:17:16.955Z,3.15
2023-04-21T06:20:18.626Z,3.21
2023-04-21T06:23:21.223Z,3.21
2023-04-21T06:26:22.954Z,3.21
2023-04-21T06:29:24.672Z,3.37
2023-04-21T06:32:26.488Z,3.54
2023-04-21T06:35:28.155Z,3.76
2023-04-21T06:38:29.923Z,3.82
2023-04-21T06:41:31.621Z,4.08
2023-04-21T06:44:33.373Z,4.14
2023-04-21T06:47:35.051Z,4.20
2023-04-21T06:50:36.797Z,4.30
2023-04-21T06:53:38.979Z,4.63
2023-04-21T06:56:42.969Z,4.82
2023-04-21T06:59:45.225Z,4.99
2023-04-21T07:02:47.088Z,5.08
2023-04-21T07:05:48.887Z,5.27
2023-04-21T07:08:50.514Z,5.63
2023-04-21T07:11:52.152Z,5.92
2023-04-21T07:14:53.778Z,6.07
2023-04-21T07:17:55.713Z,6.30
2023-04-21T07:20:57.393Z,6.70
2023-04-21T07:23:59.137Z,6.99
2023-04-21T07:27:04.067Z,7.47
2023-04-21T07:30:06.552Z,7.40
2023-04-21T07:33:09.049Z,7.65
2023-04-21T07:36:11.290Z,7.72
2023-04-21T07:39:13.000Z,7.94
2023-04-21T07:42:14.715Z,8.39
2023-04-21T07:45:16.404Z,8.78
2023-04-21T07:48:18.280Z,8.95
2023-04-21T07:51:20.079Z,9.12
2023-04-21T07:54:21.795Z,9.17
2023-04-21T07:57:23.443Z,9.51
2023-04-21T08:00:25.468Z,9.91
2023-04-21T08:03:27.447Z,9.86
2023-04-21T08:06:29.308Z,10.13
2023-04-21T08:09:31.006Z,10.47
2023-04-21T08:12:32.759Z,10.48
2023-04-21T08:15:34.967Z,10.64
2023-04-21T08:18:36.637Z,10.89
2023-04-21T08:21:38.383Z,10.98
2023-04-21T08:24:40.104Z,10.90
2023-04-21T08:27:42.040Z,11.19
2023-04-21T08:30:43.627Z,11.36
2023-04-21T08:33:58.035Z,11.35
2023-04-21T08:37:03.326Z,11.22
2023-04-21T08:40:06.384Z,11.48
2023-04-21T08:43:08.714Z,11.75
2023-04-21T08:46:10.474Z,11.71
2023-04-21T08:49:13.026Z,11.67
2023-04-21T08:52:14.831Z,12.02
2023-04-21T08:55:16.816Z,11.83
2023-04-21T08:58:18.428Z,11.76
2023-04-21T09:01:20.148Z,11.92
2023-04-21T09:04:22.071Z,12.18
2023-04-21T09:07:35.132Z,12.31
2023-04-21T09:10:44.532Z,12.74
2023-04-21T09:13:46.193Z,12.77
2023-04-21T09:17:00.631Z,13.03
2023-04-21T09:20:18.241Z,13.00
2023-04-21T09:23:21.273Z,12.97
2023-04-21T09:26:23.366Z,12.77
2023-04-21T09:29:26.072Z,12.51
2023-04-21T09:32:27.685Z,12.74
2023-04-21T09:35:32.706Z,13.28
2023-04-21T09:38:34.320Z,13.09
2023-04-21T09:41:35.974Z,13.15
2023-04-21T09:44:49.519Z,13.15
2023-04-21T09:47:57.569Z,12.90
2023-04-21T09:57:25.996Z,14.26
2023-04-21T10:00:29.066Z,14.09
2023-04-21T10:03:31.606Z,13.92
2023-04-21T10:06:33.603Z,14.32
2023-04-21T10:09:41.589Z,14.34
2023-04-21T10:12:44.664Z,14.50
2023-04-21T10:15:46.511Z,14.50
2023-04-21T10:18:48.137Z,14.73
2023-04-21T10:21:50.535Z,14.92
2023-04-21T10:24:55.509Z,15.34
2023-04-21T10:27:57.217Z,15.01
2023-04-21T10:31:23.657Z,14.50
2023-04-21T10:34:25.361Z,15.18
2023-04-21T10:37:31.533Z,15.56
2023-04-21T10:40:43.684Z,16.22
2023-04-21T10:43:50.799Z,15.91
2023-04-21T10:46:54.026Z,16.14
2023-04-21T10:49:59.527Z,15.84
2023-04-21T10:53:11.966Z,16.30
2023-04-21T10:56:13.782Z,16.50
2023-04-21T10:59:16.279Z,15.99
2023-04-21T11:02:19.200Z,16.27
2023-04-21T11:05:26.805Z,16.58
2023-04-21T11:08:28.436Z,16.76
2023-04-21T11:11:30.035Z,16.75
2023-04-21T11:14:31.592Z,16.80
2023-04-21T11:17:33.937Z,16.70
2023-04-21T11:20:40.993Z,17.04
2023-04-21T11:23:51.702Z,16.82
2023-04-21T11:26:53.398Z,17.02
2023-04-21T11:29:55.315Z,17.32
2023-04-21T11:32:56.998Z,17.19
2023-04-21T11:36:00.175Z,17.05
2023-04-21T11:39:13.514Z,17.49
2023-04-21T11:42:21.851Z,17.14
2023-04-21T11:45:23.540Z,17.17
2023-04-21T11:48:29.923Z,17.23
2023-04-21T11:51:36.656Z,16.98
2023-04-21T11:54:39.572Z,17.11
2023-04-21T11:57:41.480Z,17.04
2023-04-21T12:00:46.593Z,16.75
2023-04-21T12:03:55.747Z,16.80
2023-04-21T12:07:01.570Z,16.82
2023-04-21T12:10:11.794Z,17.28
2023-04-21T12:13:14.134Z,17.29
2023-04-21T12:16:16.904Z,17.55
2023-04-21T12:19:42.552Z,18.19
2023-04-21T12:22:45.081Z,18.34
2023-04-21T12:25:47.064Z,18.64
2023-04-21T12:28:48.670Z,18.56
2023-04-21T12:31:50.405Z,18.77
2023-04-21T12:34:52.112Z,18.68
2023-04-21T12:37:54.144Z,18.17
2023-04-21T12:40:55.922Z,18.60
2023-04-21T12:43:57.687Z,19.06
2023-04-21T12:46:59.455Z,19.23
2023-04-21T12:50:01.338Z,19.38
2023-04-21T12:53:03.040Z,18.38
2023-04-21T12:56:05.783Z,18.86
2023-04-21T12:59:08.108Z,18.43
2023-04-21T13:02:10.145Z,18.22
2023-04-21T13:05:12.730Z,18.49
2023-04-21T13:08:14.401Z,18.49
2023-04-21T13:11:16.063Z,18.84
2023-04-21T13:14:18.505Z,18.74
2023-04-21T13:17:20.410Z,18.53
2023-04-21T13:20:22.563Z,18.60
2023-04-21T13:23:24.261Z,18.99
2023-04-21T13:26:27.090Z,19.06
2023-04-21T13:29:30.315Z,18.49
2023-04-21T13:32:32.226Z,17.93
2023-04-21T13:35:33.948Z,17.37
2023-04-21T13:38:35.657Z,16.76
2023-04-21T13:41:37.296Z,16.37
2023-04-21T13:44:38.951Z,16.61
2023-04-21T13:47:40.791Z,16.15
2023-04-21T13:50:42.623Z,16.62
2023-04-21T13:53:44.372Z,16.25
2023-04-21T13:56:46.206Z,16.00
2023-04-21T13:59:48.045Z,15.72
2023-04-21T14:02:50.042Z,15.60
2023-04-21T14:05:52.159Z,15.38
2023-04-21T14:08:54.260Z,15.72
2023-04-21T14:11:56.027Z,16.26
2023-04-21T14:14:57.664Z,16.69
2023-04-21T14:18:00.515Z,16.70
2023-04-21T14:21:02.371Z,16.13
2023-04-21T14:24:04.077Z,15.82
2023-04-21T14:27:06.251Z,15.66
2023-04-21T14:30:08.923Z,15.38
2023-04-21T14:33:10.765Z,15.76
2023-04-21T14:36:12.849Z,15.82
2023-04-21T14:39:14.512Z,15.68
2023-04-21T14:42:16.290Z,15.93
2023-04-21T14:45:18.046Z,15.83
2023-04-21T14:48:21.037Z,16.02
2023-04-21T14:51:22.974Z,15.65
2023-04-21T14:54:27.288Z,15.71
2023-04-21T14:57:29.098Z,15.92
2023-04-21T15:00:31.981Z,15.96
2023-04-21T15:03:33.967Z,16.08
2023-04-21T15:06:35.715Z,16.05
2023-04-21T15:09:38.806Z,15.96
2023-04-21T15:12:41.861Z,15.79
2023-04-21T15:15:43.611Z,15.59
2023-04-21T15:18:45.450Z,15.41
2023-04-21T15:21:47.320Z,15.38
2023-04-21T15:24:49.325Z,15.39
2023-04-21T15:27:51.045Z,15.24
2023-04-21T15:30:52.684Z,15.30
2023-04-21T15:33:54.403Z,15.37
2023-04-21T15:36:56.448Z,15.49
2023-04-21T15:39:58.420Z,15.18
2023-04-21T15:43:00.224Z,15.24
2023-04-21T15:46:01.917Z,15.15
2023-04-21T15:49:03.678Z,15.09
2023-04-21T15:52:06.743Z,15.12
2023-04-21T15:55:10.057Z,15.25
2023-04-21T15:58:13.576Z,15.24
2023-04-21T16:01:15.565Z,15.19
2023-04-21T16:04:17.673Z,15.18
2023-04-21T16:07:19.461Z,15.07
2023-04-21T16:10:21.372Z,15.15
2023-04-21T16:13:23.271Z,15.22
2023-04-21T16:16:25.204Z,15.41
2023-04-21T16:19:27.061Z,15.36
2023-04-21T16:22:28.761Z,15.52
2023-04-21T16:25:33.644Z,15.46
2023-04-21T16:28:35.564Z,15.32
2023-04-21T16:31:37.479Z,15.36
2023-04-21T16:34:39.566Z,15.29
2023-04-21T16:37:42.884Z,15.29
2023-04-21T16:40:44.744Z,15.27
2023-04-21T16:43:46.413Z,15.20
2023-04-21T16:46:48.120Z,15.22
2023-04-21T16:49:49.899Z,15.26
2023-04-21T16:52:51.666Z,15.22
2023-04-21T16:55:53.565Z,15.19
2023-04-21T16:58:55.258Z,15.26
2023-04-21T17:01:57.009Z,15.21
2023-04-21T17:04:58.664Z,15.17
2023-04-21T17:08:00.268Z,15.04
2023-04-21T17:11:02.354Z,14.97
2023-04-21T17:14:03.954Z,15.01
2023-04-21T17:17:05.808Z,14.89
2023-04-21T17:20:09.577Z,14.86
2023-04-21T17:23:11.404Z,14.80
2023-04-21T17:26:13.511Z,14.78
2023-04-21T17:29:15.341Z,14.64
2023-04-21T17:32:17.265Z,14.63
2023-04-21T17:35:18.980Z,14.56
2023-04-21T17:38:20.605Z,14.45
2023-04-21T17:41:22.751Z,14.66
2023-04-21T17:44:24.438Z,14.70
2023-04-21T17:47:26.419Z,14.79
2023-04-21T17:50:28.250Z,14.71
2023-04-21T17:53:30.989Z,14.75
2023-04-21T17:56:32.762Z,14.74
2023-04-21T17:59:34.508Z,14.58
2023-04-21T18:02:36.523Z,14.57
2023-04-21T18:05:38.219Z,14.49
2023-04-21T18:08:39.811Z,14.12
2023-04-21T18:11:41.774Z,14.12
2023-04-21T18:14:43.911Z,14.03
2023-04-21T18:17:45.679Z,14.16
2023-04-21T18:20:48.332Z,14.20
2023-04-21T18:23:49.938Z,14.20
2023-04-21T18:26:51.782Z,13.88
2023-04-21T18:29:53.422Z,13.77
2023-04-21T18:32:55.172Z,13.59
2023-04-21T18:35:56.820Z,13.56
2023-04-21T18:38:58.468Z,13.51
2023-04-21T18:42:01.033Z,13.41
2023-04-21T18:45:04.616Z,13.48
2023-04-21T18:48:06.662Z,13.33
2023-04-21T18:51:08.316Z,13.15
2023-04-21T18:54:10.094Z,13.25
2023-04-21T18:57:11.982Z,13.15
2023-04-21T19:00:14.244Z,13.07
2023-04-21T19:03:16.105Z,12.88
2023-04-21T19:06:17.881Z,12.81
2023-04-21T19:09:19.493Z,12.82
2023-04-21T19:12:21.532Z,12.67
2023-04-21T19:15:23.206Z,12.53
2023-04-21T19:18:24.941Z,12.43
2023-04-21T19:21:26.598Z,12.51
2023-04-21T19:24:28.196Z,12.41
2023-04-21T19:27:32.478Z,12.55
2023-04-21T19:30:34.178Z,12.49
2023-04-21T19:33:35.871Z,12.36
2023-04-21T19:36:37.930Z,12.35
2023-04-21T19:39:39.623Z,12.26
2023-04-21T19:42:41.887Z,12.25
2023-04-21T19:45:43.724Z,12.19
2023-04-21T19:48:45.487Z,12.24
2023-04-21T19:51:47.281Z,12.22
2023-04-21T19:54:48.914Z,12.12
2023-04-21T19:57:51.126Z,12.11
2023-04-21T20:00:52.828Z,12.09
2023-04-21T20:03:54.695Z,12.19
2023-04-21T20:06:56.554Z,12.20
2023-04-21T20:09:58.124Z,12.60
2023-04-21T20:12:59.840Z,12.61
2023-04-21T20:16:02.127Z,12.53
2023-04-21T20:19:04.688Z,12.36
2023-04-21T20:22:08.052Z,12.10
2023-04-21T20:25:10.664Z,12.19
2023-04-21T20:28:12.470Z,12.05
2023-04-21T20:31:14.752Z,11.99
2023-04-21T20:34:16.596Z,12.00
2023-04-21T20:37:18.350Z,12.05
2023-04-21T20:40:21.721Z,12.02
2023-04-21T20:43:23.406Z,11.94
2023-04-21T20:46:25.260Z,11.90
2023-04-21T20:49:27.199Z,11.85
2023-04-21T20:52:29.098Z,11.79
2023-04-21T20:55:30.887Z,11.62
2023-04-21T20:58:33.192Z,11.58
2023-04-21T21:01:39.269Z,11.61
2023-04-21T21:04:41.408Z,11.53
2023-04-21T21:07:43.127Z,11.63
2023-04-21T21:10:44.768Z,11.57
2023-04-21T21:13:46.323Z,11.58
2023-04-21T21:16:47.990Z,11.64
2023-04-21T21:19:49.620Z,11.75
2023-04-21T21:22:51.338Z,11.89
2023-04-21T21:25:53.022Z,11.84
2023-04-21T21:28:54.632Z,11.72
2023-04-21T21:31:56.297Z,11.61
2023-04-21T21:34:57.901Z,11.63
2023-04-21T21:37:59.602Z,11.67
2023-04-21T21:41:01.359Z,11.56
2023-04-21T21:44:03.266Z,11.52
2023-04-21T21:47:05.138Z,11.63
2023-04-21T21:50:07.441Z,11.60
2023-04-21T21:53:09.208Z,11.58
2023-04-21T21:56:10.891Z,11.50
2023-04-21T21:59:12.642Z,11.45
2023-04-21T22:02:15.156Z,11.42
2023-04-21T22:05:17.357Z,11.38
2023-04-21T22:08:19.022Z,11.32
2023-04-21T22:11:20.909Z,11.29
2023-04-21T22:14:23.672Z,11.28
2023-04-21T22:17:26.075Z,11.25
2023-04-21T22:20:28.086Z,11.21
2023-04-21T22:23:29.826Z,11.13
2023-04-21T22:26:31.597Z,11.10
2023-04-21T22:29:33.235Z,11.13
2023-04-21T22:32:35.149Z,11.16
2023-04-21T22:35:36.962Z,11.15
2023-04-21T22:38:38.914Z,11.03
2023-04-21T22:41:40.920Z,11.10
2023-04-21T22:44:42.933Z,11.03
2023-04-21T22:47:44.755Z,11.14
2023-04-21T22:50:47.439Z,11.20
2023-04-21T22:53:49.147Z,11.36
2023-04-21T22:56:50.879Z,11.50
2023-04-21T22:59:52.706Z,11.63
2023-04-21T23:02:54.678Z,11.36
2023-04-21T23:05:56.882Z,11.36
2023-04-21T23:08:58.522Z,11.12
2023-04-21T23:12:01.431Z,11.24
2023-04-21T23:15:04.685Z,11.34
2023-04-21T23:18:06.476Z,11.28
2023-04-21T23:21:08.294Z,11.22
2023-04-21T23:24:10.103Z,11.21
2023-04-21T23:27:11.835Z,11.25
2023-04-21T23:30:13.671Z,11.28
2023-04-21T23:33:15.640Z,11.27
2023-04-21T23:36:17.323Z,11.28
2023-04-21T23:39:21.560Z,11.21
2023-04-21T23:42:23.200Z,11.14
2023-04-21T23:45:25.009Z,11.07
2023-04-21T23:48:27.278Z,11.08
2023-04-21T23:51:28.881Z,11.03
2023-04-21T23:54:30.523Z,10.95
2023-04-21T23:57:32.233Z,10.92
